Harenkarspel, Netherlands
Current Conditions -  °F | °C
As of 6:55 AM on Sunday 26 Oct 2014 (Local Time) from EHKD Reporting Station
Overcast Overcast  
Wind Chill: 57°   Ceiling: 3500
Heat Index: 57°   Visibility: 6mi
Dew Point: 48°   Wind: 17mph
Humidity: 72%   Direction: 240°WSW
Pressure: 30.12"   Gusts: NA
Location:  52.73°N, 4.78°E
Report Text: EHKD 260455Z AUTO 24015KT 9999 FEW030 OVC035 14/09 Q1020 BLU
Loading
Personal Weather Stations






























Interactive Weather Map
Tropical Storm Tracking
New forecast layout! Learn more

10-Day Weather Forecast

Advertisements
Track Severe Weather on mobile